createdAt,value
2023-04-16T00:01:27.137Z,100383.00
2023-04-16T00:03:54.385Z,100393.00
2023-04-16T00:06:23.995Z,100386.00
2023-04-16T00:08:51.586Z,100394.00
2023-04-16T00:11:18.102Z,100394.00
2023-04-16T00:13:44.621Z,100393.00
2023-04-16T00:16:11.244Z,100397.00
2023-04-16T00:18:37.816Z,100394.00
2023-04-16T00:21:04.589Z,100399.00
2023-04-16T00:23:31.481Z,100394.00
2023-04-16T00:26:00.002Z,100401.00
2023-04-16T00:28:29.948Z,100404.00
2023-04-16T00:30:56.762Z,100402.00
2023-04-16T00:33:24.159Z,100406.00
2023-04-16T00:35:51.263Z,100393.00
2023-04-16T00:38:18.090Z,100398.00
2023-04-16T00:40:44.768Z,100405.00
2023-04-16T00:43:11.446Z,100400.00
2023-04-16T00:45:38.513Z,100401.00
2023-04-16T00:48:05.996Z,100403.00
2023-04-16T00:50:33.472Z,100401.00
2023-04-16T00:53:01.443Z,100398.00
2023-04-16T00:55:28.274Z,100404.00
2023-04-16T00:57:54.872Z,100408.00
2023-04-16T01:00:21.680Z,100406.00
2023-04-16T01:02:48.482Z,100403.00
2023-04-16T01:05:15.385Z,100408.00
2023-04-16T01:07:42.041Z,100401.00
2023-04-16T01:10:08.925Z,100403.00
2023-04-16T01:12:35.531Z,100412.00
2023-04-16T01:15:02.559Z,100416.00
2023-04-16T01:17:29.189Z,100418.00
2023-04-16T01:20:00.002Z,100420.00
2023-04-16T01:22:28.272Z,100409.00
2023-04-16T01:24:54.797Z,100420.00
2023-04-16T01:27:21.280Z,100416.00
2023-04-16T01:29:47.808Z,100421.00
2023-04-16T01:32:19.625Z,100425.00
2023-04-16T01:34:47.065Z,100419.00
2023-04-16T01:37:13.586Z,100425.00
2023-04-16T01:39:40.117Z,100423.00
2023-04-16T01:42:07.959Z,100430.00
2023-04-16T01:44:34.458Z,100429.00
2023-04-16T01:47:01.018Z,100419.00
2023-04-16T01:49:27.546Z,100426.00
2023-04-16T01:51:54.046Z,100426.00
2023-04-16T01:54:20.671Z,100432.00
2023-04-16T01:56:47.224Z,100435.00
2023-04-16T01:59:13.729Z,100437.00
2023-04-16T02:01:42.366Z,100424.00
2023-04-16T02:04:09.454Z,100431.00
2023-04-16T02:06:44.342Z,100441.00
2023-04-16T02:09:13.085Z,100446.00
2023-04-16T02:11:39.987Z,100437.00
2023-04-16T02:14:08.503Z,100441.00
2023-04-16T02:16:35.888Z,100443.00
2023-04-16T02:19:10.622Z,100448.00
2023-04-16T02:21:37.629Z,100445.00
2023-04-16T02:24:04.882Z,100447.00
2023-04-16T02:26:33.395Z,100449.00
2023-04-16T02:29:05.779Z,100451.00
2023-04-16T02:31:42.941Z,100456.00
2023-04-16T02:34:10.800Z,100454.00
2023-04-16T02:36:37.377Z,100457.00
2023-04-16T02:39:04.863Z,100455.00
2023-04-16T02:41:31.364Z,100457.00
2023-04-16T02:43:57.978Z,100458.00
2023-04-16T02:46:24.760Z,100459.00
2023-04-16T02:48:51.446Z,100460.00
2023-04-16T02:51:18.130Z,100462.00
2023-04-16T02:53:46.073Z,100457.00
2023-04-16T02:56:13.372Z,100463.00
2023-04-16T02:58:40.115Z,100461.00
2023-04-16T03:01:06.880Z,100445.00
2023-04-16T03:03:33.690Z,100456.00
2023-04-16T03:06:00.238Z,100460.00
2023-04-16T03:08:27.398Z,100460.00
2023-04-16T03:10:56.422Z,100465.00
2023-04-16T03:13:22.999Z,100465.00
2023-04-16T03:15:50.109Z,100466.00
2023-04-16T03:18:16.839Z,100473.00
2023-04-16T03:20:43.481Z,100469.00
2023-04-16T03:23:11.409Z,100458.00
2023-04-16T03:25:40.412Z,100470.00
2023-04-16T03:28:08.522Z,100469.00
2023-04-16T03:30:35.421Z,100455.00
2023-04-16T03:33:03.224Z,100473.00
2023-04-16T03:35:29.735Z,100479.00
2023-04-16T03:37:56.978Z,100485.00
2023-04-16T03:40:23.511Z,100477.00
2023-04-16T03:42:50.369Z,100475.00
2023-04-16T03:45:17.181Z,100486.00
2023-04-16T03:47:45.207Z,100483.00
2023-04-16T03:50:11.923Z,100488.00
2023-04-16T03:52:39.096Z,100492.00
2023-04-16T03:55:06.207Z,100499.00
2023-04-16T03:57:32.755Z,100494.00
2023-04-16T04:00:08.812Z,100494.00
2023-04-16T04:02:41.539Z,100501.00
2023-04-16T04:05:14.838Z,100503.00
2023-04-16T04:07:41.696Z,100509.00
2023-04-16T04:10:09.264Z,100509.00
2023-04-16T04:12:39.536Z,100516.00
2023-04-16T04:15:07.418Z,100523.00
2023-04-16T04:17:33.988Z,100523.00
2023-04-16T04:20:01.905Z,100530.00
2023-04-16T04:22:30.821Z,100522.00
2023-04-16T04:24:57.372Z,100525.00
2023-04-16T04:27:25.552Z,100521.00
2023-04-16T04:29:52.103Z,100531.00
2023-04-16T04:32:18.593Z,100535.00
2023-04-16T04:34:47.313Z,100537.00
2023-04-16T04:37:14.901Z,100538.00
2023-04-16T04:39:41.727Z,100533.00
2023-04-16T04:42:08.740Z,100538.00
2023-04-16T04:44:35.421Z,100539.00
2023-04-16T04:47:02.143Z,100534.00
2023-04-16T04:49:30.853Z,100535.00
2023-04-16T04:52:01.654Z,100531.00
2023-04-16T04:54:29.098Z,100539.00
2023-04-16T04:56:56.406Z,100535.00
2023-04-16T04:59:23.605Z,100543.00
2023-04-16T05:01:50.763Z,100545.00
2023-04-16T05:04:17.598Z,100550.00
2023-04-16T05:06:44.426Z,100548.00
2023-04-16T05:09:11.823Z,100555.00
2023-04-16T05:11:39.203Z,100559.00
2023-04-16T05:14:05.806Z,100556.00
2023-04-16T05:16:32.402Z,100563.00
2023-04-16T05:18:59.027Z,100553.00
2023-04-16T05:21:26.349Z,100571.00
2023-04-16T05:23:53.322Z,100567.00
2023-04-16T05:26:19.940Z,100569.00
2023-04-16T05:28:46.482Z,100569.00
2023-04-16T05:31:13.106Z,100587.00
2023-04-16T05:33:39.745Z,100577.00
2023-04-16T05:36:06.506Z,100591.00
2023-04-16T05:38:33.065Z,100586.00
2023-04-16T05:40:59.666Z,100589.00
2023-04-16T05:43:26.347Z,100600.00
2023-04-16T05:45:52.918Z,100593.00
2023-04-16T05:48:20.182Z,100591.00
2023-04-16T05:50:46.836Z,100598.00
2023-04-16T05:53:14.125Z,100595.00
2023-04-16T05:55:40.737Z,100597.00
2023-04-16T05:58:07.244Z,100601.00
2023-04-16T06:00:33.807Z,100607.00
2023-04-16T06:03:00.796Z,100605.00
2023-04-16T06:05:27.681Z,100609.00
2023-04-16T06:07:54.314Z,100613.00
2023-04-16T06:10:20.978Z,100609.00
2023-04-16T06:12:47.688Z,100615.00
2023-04-16T06:15:14.354Z,100609.00
2023-04-16T06:17:41.152Z,100614.00
2023-04-16T06:20:08.181Z,100613.00
2023-04-16T06:22:34.744Z,100609.00
2023-04-16T06:25:01.332Z,100622.00
2023-04-16T06:27:27.879Z,100622.00
2023-04-16T06:29:54.426Z,100623.00
2023-04-16T06:32:21.179Z,100631.00
2023-04-16T06:34:47.684Z,100632.00
2023-04-16T06:37:14.916Z,100637.00
2023-04-16T06:39:41.455Z,100636.00
2023-04-16T06:42:07.953Z,100633.00
2023-04-16T06:44:35.727Z,100627.00
2023-04-16T06:47:02.260Z,100628.00
2023-04-16T06:49:28.900Z,100625.00
2023-04-16T06:51:55.488Z,100635.00
2023-04-16T06:54:22.010Z,100638.00
2023-04-16T06:56:48.565Z,100639.00
2023-04-16T06:59:15.595Z,100630.00
2023-04-16T07:01:42.213Z,100652.00
2023-04-16T07:04:09.266Z,100642.00
2023-04-16T07:06:36.100Z,100638.00
2023-04-16T07:09:02.639Z,100649.00
2023-04-16T07:11:29.353Z,100643.00
2023-04-16T07:13:57.620Z,100648.00
2023-04-16T07:16:24.356Z,100653.00
2023-04-16T07:18:50.921Z,100654.00
2023-04-16T07:21:17.468Z,100652.00
2023-04-16T07:23:44.078Z,100651.00
2023-04-16T07:26:11.576Z,100657.00
2023-04-16T07:28:38.248Z,100661.00
2023-04-16T07:31:04.933Z,100670.00
2023-04-16T07:33:31.465Z,100666.00
2023-04-16T07:35:58.007Z,100677.00
2023-04-16T07:38:24.563Z,100668.00
2023-04-16T07:40:51.406Z,100671.00
2023-04-16T07:43:17.903Z,100681.00
2023-04-16T07:45:44.450Z,100676.00
2023-04-16T07:48:11.121Z,100683.00
2023-04-16T07:50:37.691Z,100670.00
2023-04-16T07:53:05.812Z,100681.00
2023-04-16T07:55:32.660Z,100683.00
2023-04-16T07:57:59.169Z,100676.00
2023-04-16T08:00:26.274Z,100684.00
2023-04-16T08:02:52.929Z,100688.00
2023-04-16T08:05:19.788Z,100687.00
2023-04-16T08:07:46.513Z,100696.00
2023-04-16T08:10:13.138Z,100697.00
2023-04-16T08:12:39.703Z,100697.00
2023-04-16T08:15:07.337Z,100702.00
2023-04-16T08:17:34.807Z,100701.00
2023-04-16T08:20:01.825Z,100707.00
2023-04-16T08:22:28.409Z,100702.00
2023-04-16T08:24:55.056Z,100707.00
2023-04-16T08:27:21.583Z,100709.00
2023-04-16T08:29:48.482Z,100719.00
2023-04-16T08:32:15.203Z,100715.00
2023-04-16T08:34:42.022Z,100722.00
2023-04-16T08:37:08.904Z,100713.00
2023-04-16T08:39:35.937Z,100724.00
2023-04-16T08:42:05.162Z,100717.00
2023-04-16T08:44:34.522Z,100729.00
2023-04-16T08:47:02.285Z,100730.00
2023-04-16T08:49:29.440Z,100730.00
2023-04-16T08:51:56.912Z,100741.00
2023-04-16T08:54:32.727Z,100739.00
2023-04-16T08:57:02.049Z,100739.00
2023-04-16T08:59:28.633Z,100735.00
2023-04-16T09:01:59.520Z,100740.00
2023-04-16T09:04:28.670Z,100723.00
2023-04-16T09:06:56.670Z,100741.00
2023-04-16T09:09:23.279Z,100742.00
2023-04-16T09:11:51.483Z,100746.00
2023-04-16T09:14:18.296Z,100751.00
2023-04-16T09:16:47.367Z,100753.00
2023-04-16T09:19:17.120Z,100761.00
2023-04-16T09:21:46.926Z,100756.00
2023-04-16T09:24:13.490Z,100761.00
2023-04-16T09:26:43.247Z,100764.00
2023-04-16T09:29:10.226Z,100763.00
2023-04-16T09:31:37.141Z,100769.00
2023-04-16T09:34:08.431Z,100767.00
2023-04-16T09:36:36.102Z,100763.00
2023-04-16T09:39:06.245Z,100772.00
2023-04-16T09:41:36.064Z,100769.00
2023-04-16T09:44:04.482Z,100778.00
2023-04-16T09:46:41.109Z,100767.00
2023-04-16T09:49:13.781Z,100779.00
2023-04-16T09:51:45.677Z,100779.00
2023-04-16T09:54:12.761Z,100776.00
2023-04-16T09:56:41.578Z,100776.00
2023-04-16T09:59:09.508Z,100786.00
2023-04-16T10:01:36.742Z,100781.00
2023-04-16T10:04:06.818Z,100786.00
2023-04-16T10:06:33.429Z,100786.00
2023-04-16T10:08:59.991Z,100792.00
2023-04-16T10:11:27.052Z,100789.00
2023-04-16T10:13:53.657Z,100795.00
2023-04-16T10:16:22.379Z,100786.00
2023-04-16T10:18:48.984Z,100799.00
2023-04-16T10:21:16.279Z,100795.00
2023-04-16T10:23:43.465Z,100801.00
2023-04-16T10:26:10.036Z,100796.00
2023-04-16T10:28:37.036Z,100789.00
2023-04-16T10:31:07.220Z,100798.00
2023-04-16T10:33:36.346Z,100796.00
2023-04-16T10:36:09.846Z,100804.00
2023-04-16T10:38:40.066Z,100795.00
2023-04-16T10:41:07.514Z,100795.00
2023-04-16T10:43:41.239Z,100794.00
2023-04-16T10:46:26.497Z,100792.00
2023-04-16T10:48:54.431Z,100797.00
2023-04-16T10:51:24.001Z,100799.00
2023-04-16T10:53:50.507Z,100802.00
2023-04-16T10:56:24.145Z,100804.00
2023-04-16T10:58:53.361Z,100808.00
2023-04-16T11:01:29.765Z,100807.00
2023-04-16T11:03:56.598Z,100813.00
2023-04-16T11:06:27.631Z,100813.00
2023-04-16T11:08:55.452Z,100813.00
2023-04-16T11:11:39.318Z,100814.00
2023-04-16T11:14:06.673Z,100816.00
2023-04-16T11:16:33.354Z,100816.00
2023-04-16T11:19:00.131Z,100817.00
2023-04-16T11:21:26.830Z,100815.00
2023-04-16T11:23:53.607Z,100817.00
2023-04-16T11:26:30.821Z,100821.00
2023-04-16T11:28:57.647Z,100826.00
2023-04-16T11:31:24.416Z,100826.00
2023-04-16T11:33:50.999Z,100832.00
2023-04-16T11:36:17.654Z,100826.00
2023-04-16T11:38:44.413Z,100817.00
2023-04-16T11:41:11.237Z,100832.00
2023-04-16T11:43:37.974Z,100828.00
2023-04-16T11:46:20.156Z,100832.00
2023-04-16T11:48:52.441Z,100832.00
2023-04-16T11:51:20.512Z,100845.00
2023-04-16T11:53:51.235Z,100830.00
2023-04-16T11:56:26.195Z,100838.00
2023-04-16T11:59:25.418Z,100834.00
2023-04-16T12:01:55.646Z,100839.00
2023-04-16T12:04:25.029Z,100833.00
2023-04-16T12:07:11.723Z,100846.00
2023-04-16T12:09:40.803Z,100845.00
2023-04-16T12:12:30.737Z,100844.00
2023-04-16T12:15:00.215Z,100854.00
2023-04-16T12:17:26.932Z,100848.00
2023-04-16T12:20:01.849Z,100851.00
2023-04-16T12:22:32.418Z,100854.00
2023-04-16T12:25:00.091Z,100850.00
2023-04-16T12:27:28.649Z,100856.00
2023-04-16T12:30:07.111Z,100857.00
2023-04-16T12:32:33.775Z,100856.00
2023-04-16T12:35:00.347Z,100851.00
2023-04-16T12:37:27.246Z,100855.00
2023-04-16T12:39:54.387Z,100850.00
2023-04-16T12:42:21.352Z,100849.00
2023-04-16T12:44:48.018Z,100856.00
2023-04-16T12:47:14.644Z,100854.00
2023-04-16T12:49:41.256Z,100858.00
2023-04-16T12:52:07.865Z,100864.00
2023-04-16T12:54:34.436Z,100863.00
2023-04-16T12:57:00.937Z,100857.00
2023-04-16T12:59:27.408Z,100875.00
2023-04-16T13:01:54.002Z,100866.00
2023-04-16T13:04:21.588Z,100873.00
2023-04-16T13:06:49.991Z,100859.00
2023-04-16T13:09:16.487Z,100868.00
2023-04-16T13:11:43.008Z,100885.00
2023-04-16T13:14:09.598Z,100888.00
2023-04-16T13:16:38.594Z,100880.00
2023-04-16T13:19:05.381Z,100886.00
2023-04-16T13:21:32.045Z,100888.00
2023-04-16T13:23:59.399Z,100891.00
2023-04-16T13:26:26.521Z,100880.00
2023-04-16T13:28:52.992Z,100893.00
2023-04-16T13:31:21.923Z,100891.00
2023-04-16T13:33:48.632Z,100893.00
2023-04-16T13:36:15.236Z,100893.00
2023-04-16T13:38:42.227Z,100899.00
2023-04-16T13:41:08.778Z,100898.00
2023-04-16T13:43:35.245Z,100898.00
2023-04-16T13:46:01.867Z,100898.00
2023-04-16T13:48:28.534Z,100895.00
2023-04-16T13:50:56.063Z,100891.00
2023-04-16T13:53:22.587Z,100896.00
2023-04-16T13:55:49.570Z,100895.00
2023-04-16T13:58:16.316Z,100888.00
2023-04-16T14:00:43.179Z,100893.00
2023-04-16T14:03:09.804Z,100886.00
2023-04-16T14:05:36.429Z,100895.00
2023-04-16T14:08:02.971Z,100902.00
2023-04-16T14:10:29.594Z,100900.00
2023-04-16T14:12:57.184Z,100887.00
2023-04-16T14:15:26.564Z,100891.00
2023-04-16T14:17:53.761Z,100899.00
2023-04-16T14:20:20.455Z,100881.00
2023-04-16T14:22:47.084Z,100893.00
2023-04-16T14:25:13.754Z,100903.00
2023-04-16T14:27:41.203Z,100901.00
2023-04-16T14:30:08.185Z,100892.00
2023-04-16T14:32:34.793Z,100897.00
2023-04-16T14:35:01.339Z,100905.00
2023-04-16T14:37:27.976Z,100901.00
2023-04-16T14:39:54.579Z,100907.00
2023-04-16T14:42:22.347Z,100906.00
2023-04-16T14:44:48.926Z,100898.00
2023-04-16T14:47:15.427Z,100906.00
2023-04-16T14:49:41.960Z,100907.00
2023-04-16T14:52:08.505Z,100904.00
2023-04-16T14:54:35.056Z,100893.00
2023-04-16T14:57:01.940Z,100902.00
2023-04-16T14:59:28.736Z,100910.00
2023-04-16T15:01:56.682Z,100904.00
2023-04-16T15:04:25.706Z,100907.00
2023-04-16T15:06:52.556Z,100910.00
2023-04-16T15:09:19.040Z,100906.00
2023-04-16T15:11:45.704Z,100901.00
2023-04-16T15:14:12.413Z,100912.00
2023-04-16T15:16:39.304Z,100916.00
2023-04-16T15:19:05.903Z,100923.00
2023-04-16T15:21:32.816Z,100916.00
2023-04-16T15:23:59.304Z,100917.00
2023-04-16T15:26:26.072Z,100926.00
2023-04-16T15:28:52.568Z,100923.00
2023-04-16T15:31:20.808Z,100908.00
2023-04-16T15:33:48.478Z,100928.00
2023-04-16T15:36:16.078Z,100922.00
2023-04-16T15:38:42.669Z,100932.00
2023-04-16T15:41:09.913Z,100934.00
2023-04-16T15:43:36.819Z,100932.00
2023-04-16T15:46:03.536Z,100925.00
2023-04-16T15:48:30.134Z,100937.00
2023-04-16T15:50:56.770Z,100929.00
2023-04-16T15:53:23.261Z,100940.00
2023-04-16T15:55:54.707Z,100946.00
2023-04-16T15:58:21.392Z,100945.00
2023-04-16T16:00:49.876Z,100958.00
2023-04-16T16:03:19.627Z,100955.00
2023-04-16T16:05:47.853Z,100960.00
2023-04-16T16:08:15.589Z,100957.00
2023-04-16T16:10:42.571Z,100958.00
2023-04-16T16:13:13.009Z,100952.00
2023-04-16T16:15:43.262Z,100955.00
2023-04-16T16:18:10.162Z,100953.00
2023-04-16T16:20:37.108Z,100960.00
2023-04-16T16:23:03.728Z,100967.00
2023-04-16T16:25:30.501Z,100943.00
2023-04-16T16:27:58.704Z,100950.00
2023-04-16T16:30:26.235Z,100968.00
2023-04-16T16:32:55.699Z,100962.00
2023-04-16T16:35:22.238Z,100967.00
2023-04-16T16:37:48.905Z,100966.00
2023-04-16T16:40:16.010Z,100973.00
2023-04-16T16:42:42.705Z,100971.00
2023-04-16T16:45:09.895Z,100980.00
2023-04-16T16:47:36.485Z,100975.00
2023-04-16T16:50:03.512Z,100982.00
2023-04-16T16:52:30.085Z,100979.00
2023-04-16T16:54:56.835Z,100979.00
2023-04-16T16:57:26.315Z,100985.00
2023-04-16T16:59:54.234Z,100985.00
2023-04-16T17:02:20.759Z,100978.00
2023-04-16T17:04:47.341Z,100988.00
2023-04-16T17:07:13.839Z,100977.00
2023-04-16T17:09:40.402Z,100990.00
2023-04-16T17:12:06.979Z,100990.00
2023-04-16T17:14:33.741Z,100991.00
2023-04-16T17:17:03.518Z,100997.00
2023-04-16T17:19:30.273Z,100993.00
2023-04-16T17:21:57.245Z,100998.00
2023-04-16T17:24:23.900Z,101000.00
2023-04-16T17:26:50.750Z,101004.00
2023-04-16T17:29:17.311Z,101004.00
2023-04-16T17:31:43.972Z,101010.00
2023-04-16T17:34:10.971Z,101006.00
2023-04-16T17:36:37.864Z,101011.00
2023-04-16T17:39:04.367Z,101009.00
2023-04-16T17:41:31.050Z,101026.00
2023-04-16T17:43:57.555Z,101028.00
2023-04-16T17:46:24.074Z,101021.00
2023-04-16T17:48:50.649Z,101030.00
2023-04-16T17:51:17.388Z,101039.00
2023-04-16T17:53:44.582Z,101035.00
2023-04-16T17:56:11.621Z,101039.00
2023-04-16T17:58:38.265Z,101033.00
2023-04-16T18:01:05.399Z,101035.00
2023-04-16T18:03:32.971Z,101038.00
2023-04-16T18:06:00.232Z,101040.00
2023-04-16T18:08:27.371Z,101045.00
2023-04-16T18:10:55.338Z,101048.00
2023-04-16T18:13:22.507Z,101053.00
2023-04-16T18:15:49.530Z,101053.00
2023-04-16T18:18:16.184Z,101056.00
2023-04-16T18:20:42.882Z,101065.00
2023-04-16T18:23:09.614Z,101066.00
2023-04-16T18:25:36.487Z,101071.00
2023-04-16T18:28:03.906Z,101072.00
2023-04-16T18:30:31.316Z,101074.00
2023-04-16T18:35:27.518Z,101078.00
2023-04-16T18:37:54.044Z,101085.00
2023-04-16T18:40:20.792Z,101085.00
2023-04-16T18:42:47.634Z,101082.00
2023-04-16T18:45:19.586Z,101095.00
2023-04-16T18:47:48.187Z,101092.00
2023-04-16T18:50:14.890Z,101085.00
2023-04-16T18:52:41.901Z,101093.00
2023-04-16T18:55:08.860Z,101090.00
2023-04-16T18:57:35.407Z,101108.00
2023-04-16T19:00:05.825Z,101099.00
2023-04-16T19:02:35.080Z,101106.00
2023-04-16T19:05:01.827Z,101103.00
2023-04-16T19:07:28.361Z,101102.00
2023-04-16T19:09:54.920Z,101101.00
2023-04-16T19:12:21.587Z,101096.00
2023-04-16T19:14:48.175Z,101105.00
2023-04-16T19:17:14.833Z,101114.00
2023-04-16T19:19:41.374Z,101107.00
2023-04-16T19:22:08.180Z,101106.00
2023-04-16T19:24:34.725Z,101107.00
2023-04-16T19:27:02.413Z,101114.00
2023-04-16T19:29:33.495Z,101105.00
2023-04-16T19:32:00.734Z,101106.00
2023-04-16T19:34:27.418Z,101091.00
2023-04-16T19:36:54.202Z,101107.00
2023-04-16T19:39:21.022Z,101115.00
2023-04-16T19:41:47.698Z,101112.00
2023-04-16T19:44:14.378Z,101119.00
2023-04-16T19:46:40.911Z,101118.00
2023-04-16T19:49:09.209Z,101108.00
2023-04-16T19:51:36.015Z,101121.00
2023-04-16T19:54:02.559Z,101114.00
2023-04-16T19:56:29.530Z,101119.00
2023-04-16T19:58:57.751Z,101120.00
2023-04-16T20:01:24.879Z,101120.00
2023-04-16T20:03:51.606Z,101118.00
2023-04-16T20:06:18.169Z,101113.00
2023-04-16T20:08:44.826Z,101126.00
2023-04-16T20:11:12.157Z,101126.00
2023-04-16T20:13:38.884Z,101132.00
2023-04-16T20:16:05.851Z,101117.00
2023-04-16T20:18:32.443Z,101128.00
2023-04-16T20:21:03.576Z,101131.00
2023-04-16T20:23:30.465Z,101122.00
2023-04-16T20:25:57.249Z,101131.00
2023-04-16T20:28:23.827Z,101133.00
2023-04-16T20:30:51.018Z,101126.00
2023-04-16T20:33:17.817Z,101126.00
2023-04-16T20:35:44.316Z,101110.00
2023-04-16T20:38:11.038Z,101136.00
2023-04-16T20:40:38.807Z,101134.00
2023-04-16T20:43:09.961Z,101132.00
2023-04-16T20:45:40.771Z,101143.00
2023-04-16T20:48:07.787Z,101140.00
2023-04-16T20:50:34.343Z,101136.00
2023-04-16T20:53:03.483Z,101142.00
2023-04-16T20:55:30.235Z,101134.00
2023-04-16T20:57:56.817Z,101132.00
2023-04-16T21:00:23.476Z,101140.00
2023-04-16T21:02:50.510Z,101148.00
2023-04-16T21:05:19.017Z,101147.00
2023-04-16T21:07:45.698Z,101147.00
2023-04-16T21:10:12.377Z,101144.00
2023-04-16T21:12:41.908Z,101141.00
2023-04-16T21:15:08.452Z,101146.00
2023-04-16T21:17:35.165Z,101151.00
2023-04-16T21:20:01.996Z,101154.00
2023-04-16T21:22:28.634Z,101154.00
2023-04-16T21:24:55.430Z,101148.00
2023-04-16T21:27:21.963Z,101152.00
2023-04-16T21:29:48.564Z,101153.00
2023-04-16T21:32:15.150Z,101153.00
2023-04-16T21:34:41.736Z,101156.00
2023-04-16T21:37:08.506Z,101145.00
2023-04-16T21:39:35.050Z,101141.00
2023-04-16T21:42:01.775Z,101148.00
2023-04-16T21:44:28.295Z,101154.00
2023-04-16T21:46:55.025Z,101153.00
2023-04-16T21:49:21.645Z,101153.00
2023-04-16T21:51:50.047Z,101159.00
2023-04-16T21:54:18.520Z,101156.00
2023-04-16T21:56:45.255Z,101156.00
2023-04-16T21:59:11.945Z,101156.00
2023-04-16T22:01:38.693Z,101157.00
2023-04-16T22:04:05.966Z,101147.00
2023-04-16T22:06:33.122Z,101145.00
2023-04-16T22:08:59.920Z,101147.00
2023-04-16T22:11:26.531Z,101141.00
2023-04-16T22:13:53.609Z,101147.00
2023-04-16T22:16:20.273Z,101155.00
2023-04-16T22:18:47.509Z,101158.00
2023-04-16T22:21:14.172Z,101159.00
2023-04-16T22:23:40.897Z,101158.00
2023-04-16T22:26:08.925Z,101162.00
2023-04-16T22:28:35.549Z,101162.00
2023-04-16T22:31:02.166Z,101164.00
2023-04-16T22:33:29.365Z,101169.00
2023-04-16T22:35:55.940Z,101160.00
2023-04-16T22:38:22.645Z,101150.00
2023-04-16T22:40:49.224Z,101162.00
2023-04-16T22:43:17.581Z,101170.00
2023-04-16T22:45:46.054Z,101168.00
2023-04-16T22:48:12.625Z,101158.00
2023-04-16T22:50:40.224Z,101164.00
2023-04-16T22:53:06.774Z,101170.00
2023-04-16T22:55:33.338Z,101158.00
2023-04-16T22:57:59.892Z,101164.00
2023-04-16T23:00:27.303Z,101166.00
2023-04-16T23:02:53.978Z,101170.00
2023-04-16T23:05:20.738Z,101165.00
2023-04-16T23:07:47.441Z,101166.00
2023-04-16T23:10:14.009Z,101167.00
2023-04-16T23:12:40.608Z,101166.00
2023-04-16T23:15:07.780Z,101159.00
2023-04-16T23:17:35.095Z,101166.00
2023-04-16T23:20:02.367Z,101166.00
2023-04-16T23:22:28.942Z,101164.00
2023-04-16T23:24:55.568Z,101169.00
2023-04-16T23:27:22.156Z,101177.00
2023-04-16T23:29:48.754Z,101171.00
2023-04-16T23:32:15.322Z,101166.00
2023-04-16T23:34:42.119Z,101167.00
2023-04-16T23:37:09.119Z,101171.00
2023-04-16T23:39:35.788Z,101171.00
2023-04-16T23:42:02.403Z,101172.00
2023-04-16T23:44:28.937Z,101164.00
2023-04-16T23:46:55.551Z,101167.00
2023-04-16T23:49:22.183Z,101161.00
2023-04-16T23:51:48.863Z,101172.00
2023-04-16T23:54:15.535Z,101167.00
2023-04-16T23:56:42.117Z,101168.00
2023-04-16T23:59:11.107Z,101172.00
